Time,TemperatureF,DewpointF,PressureIn,WindDirection,WindDirectionDegrees,WindSpeedMPH,WindSpeedGustMPH,Humidity,HourlyPrecipIn,Conditions,Clouds,dailyrainin,SoftwareType,DateUTC
2013-02-05 00:14:00,46.0,45.0,30.10,SSW,204,3.0,4.0,95,0.00,,,0.00,weatherlink.com 1.10,2013-02-05 08:14:00,
2013-02-05 00:29:00,45.9,45.0,30.11,WSW,239,2.0,4.0,95,0.00,,,0.00,weatherlink.com 1.10,2013-02-05 08:29:00,
2013-02-05 00:45:00,45.7,45.0,30.11,WSW,238,2.0,2.0,96,0.00,,,0.00,weatherlink.com 1.10,2013-02-05 08:45:00,
2013-02-05 01:00:00,45.6,45.0,30.10,SSW,207,1.0,4.0,96,0.00,,,0.00,weatherlink.com 1.10,2013-02-05 09:00:00,
2013-02-05 01:15:00,45.3,44.0,30.10,SW,224,1.0,3.0,96,0.00,,,0.00,weatherlink.com 1.10,2013-02-05 09:15:00,
2013-02-05 01:30:00,45.1,44.0,30.10,SW,217,0.0,4.0,96,0.00,,,0.00,weatherlink.com 1.10,2013-02-05 09:30:00,
2013-02-05 01:45:00,45.0,44.0,30.10,WSW,245,0.0,0.0,96,0.00,,,0.00,weatherlink.com 1.10,2013-02-05 09:45:00,
2013-02-05 02:00:00,45.1,44.0,30.10,NNW,335,0.0,0.0,96,0.00,,,0.00,weatherlink.com 1.10,2013-02-05 10:00:00,
2013-02-05 02:15:00,45.1,44.0,30.09,NNE,16,0.0,0.0,96,0.00,,,0.00,weatherlink.com 1.10,2013-02-05 10:15:00,
2013-02-05 02:30:00,45.0,44.0,30.09,SSE,159,0.0,0.0,96,0.00,,,0.00,weatherlink.com 1.10,2013-02-05 10:30:00,
2013-02-05 02:45:00,44.9,44.0,30.08,SW,214,0.0,0.0,96,0.00,,,0.00,weatherlink.com 1.10,2013-02-05 10:45:00,
2013-02-05 03:00:00,45.1,44.0,30.08,West,269,0.0,0.0,96,0.00,,,0.00,weatherlink.com 1.10,2013-02-05 11:00:00,
2013-02-05 03:15:00,45.1,44.0,30.08,West,281,0.0,0.0,97,0.00,,,0.00,weatherlink.com 1.10,2013-02-05 11:15:00,
2013-02-05 03:30:00,44.9,44.0,30.07,SE,145,0.0,0.0,97,0.00,,,0.00,weatherlink.com 1.10,2013-02-05 11:30:00,
2013-02-05 03:45:00,44.9,44.0,30.08,SE,145,0.0,0.0,97,0.00,,,0.00,weatherlink.com 1.10,2013-02-05 11:45:00,
2013-02-05 04:00:00,44.8,44.0,30.08,NW,323,0.0,0.0,97,0.00,,,0.00,weatherlink.com 1.10,2013-02-05 12:00:00,
2013-02-05 04:15:00,44.8,44.0,30.08,NW,323,0.0,0.0,97,0.00,,,0.00,weatherlink.com 1.10,2013-02-05 12:15:00,
2013-02-05 04:30:00,44.9,44.0,30.08,NNW,335,0.0,1.0,97,0.00,,,0.00,weatherlink.com 1.10,2013-02-05 12:30:00,
2013-02-05 04:45:00,44.9,44.0,30.08,West,276,0.0,0.0,98,0.00,,,0.00,weatherlink.com 1.10,2013-02-05 12:45:00,
2013-02-05 05:00:00,44.6,44.0,30.08,West,280,1.0,5.0,97,0.00,,,0.00,weatherlink.com 1.10,2013-02-05 13:00:00,
2013-02-05 05:15:00,44.5,44.0,30.08,West,263,1.0,1.0,98,0.00,,,0.00,weatherlink.com 1.10,2013-02-05 13:15:00,
2013-02-05 05:30:00,44.3,44.0,30.07,NW,316,0.0,2.0,97,0.00,,,0.00,weatherlink.com 1.10,2013-02-05 13:30:00,
2013-02-05 05:45:00,44.4,44.0,30.07,East,92,0.0,0.0,97,0.00,,,0.00,weatherlink.com 1.10,2013-02-05 13:45:00,
2013-02-05 06:00:00,44.3,44.0,30.08,North,352,0.0,0.0,97,0.00,,,0.00,weatherlink.com 1.10,2013-02-05 14:00:00,
2013-02-05 06:15:00,44.4,44.0,30.08,NE,41,0.0,0.0,97,0.00,,,0.00,weatherlink.com 1.10,2013-02-05 14:15:00,
2013-02-05 06:30:00,44.4,44.0,30.07,ESE,107,0.0,0.0,97,0.00,,,0.00,weatherlink.com 1.10,2013-02-05 14:30:00,
2013-02-05 06:46:00,44.4,44.0,30.08,ESE,103,0.0,0.0,97,0.00,,,0.00,weatherlink.com 1.10,2013-02-05 14:46:00,
2013-02-05 07:00:00,44.4,44.0,30.08,SE,130,0.0,0.0,97,0.00,,,0.00,weatherlink.com 1.10,2013-02-05 15:00:00,
2013-02-05 07:16:00,44.5,44.0,30.08,SE,128,0.0,0.0,97,0.00,,,0.00,weatherlink.com 1.10,2013-02-05 15:16:00,
2013-02-05 07:30:00,44.6,44.0,30.09,SE,129,0.0,0.0,97,0.00,,,0.00,weatherlink.com 1.10,2013-02-05 15:30:00,
2013-02-05 07:45:00,44.7,44.0,30.09,SE,128,0.0,0.0,97,0.00,,,0.00,weatherlink.com 1.10,2013-02-05 15:45:00,
2013-02-05 08:00:00,44.9,44.0,30.09,SE,131,0.0,0.0,97,0.00,,,0.00,weatherlink.com 1.10,2013-02-05 16:00:00,
2013-02-05 08:15:00,45.2,44.0,30.09,SE,131,0.0,0.0,97,0.00,,,0.00,weatherlink.com 1.10,2013-02-05 16:15:00,
2013-02-05 08:30:00,45.5,45.0,30.10,SSE,166,1.0,2.0,97,0.00,,,0.00,weatherlink.com 1.10,2013-02-05 16:30:00,
2013-02-05 08:45:00,45.9,45.0,30.10,South,181,3.0,4.0,97,0.00,,,0.00,weatherlink.com 1.10,2013-02-05 16:45:00,
2013-02-05 09:00:00,46.3,46.0,30.10,SSE,167,0.0,5.0,97,0.00,,,0.00,weatherlink.com 1.10,2013-02-05 17:00:00,
2013-02-05 09:15:00,46.8,46.0,30.10,WSW,239,0.0,3.0,96,0.00,,,0.00,weatherlink.com 1.10,2013-02-05 17:15:00,
2013-02-05 09:30:00,47.4,46.0,30.10,SSE,158,0.0,3.0,95,0.01,,,0.01,weatherlink.com 1.10,2013-02-05 17:30:00,
2013-02-05 09:45:00,48.2,47.0,30.11,WNW,298,0.0,2.0,94,0.01,,,0.01,weatherlink.com 1.10,2013-02-05 17:45:00,
2013-02-05 10:00:00,48.5,46.0,30.11,West,281,0.0,3.0,92,0.01,,,0.01,weatherlink.com 1.10,2013-02-05 18:00:00,
2013-02-05 10:16:00,50.0,47.0,30.11,SW,229,0.0,1.0,90,0.01,,,0.01,weatherlink.com 1.10,2013-02-05 18:16:00,
2013-02-05 10:31:00,50.3,47.0,30.11,West,281,0.0,4.0,87,0.00,,,0.01,weatherlink.com 1.10,2013-02-05 18:31:00,
2013-02-05 10:46:00,50.7,47.0,30.11,WNW,283,0.0,2.0,86,0.00,,,0.01,weatherlink.com 1.10,2013-02-05 18:46:00,
2013-02-05 11:01:00,51.1,47.0,30.11,West,277,4.0,4.0,86,0.00,,,0.01,weatherlink.com 1.10,2013-02-05 19:01:00,
2013-02-05 11:16:00,51.8,47.0,30.11,West,280,4.0,6.0,84,0.00,,,0.01,weatherlink.com 1.10,2013-02-05 19:16:00,
2013-02-05 11:31:00,52.7,48.0,30.10,WSW,237,0.0,4.0,83,0.00,,,0.01,weatherlink.com 1.10,2013-02-05 19:31:00,
2013-02-05 11:46:00,53.4,48.0,30.10,West,274,1.0,6.0,82,0.00,,,0.01,weatherlink.com 1.10,2013-02-05 19:46:00,
2013-02-05 12:01:00,54.1,47.0,30.09,WNW,287,0.0,3.0,78,0.00,,,0.01,weatherlink.com 1.10,2013-02-05 20:01:00,
2013-02-05 12:16:00,55.2,48.0,30.09,SW,235,4.0,6.0,78,0.00,,,0.01,weatherlink.com 1.10,2013-02-05 20:16:00,
2013-02-05 12:31:00,56.2,49.0,30.08,SW,232,2.0,5.0,76,0.00,,,0.01,weatherlink.com 1.10,2013-02-05 20:31:00,
2013-02-05 12:46:00,56.6,49.0,30.07,SW,219,1.0,5.0,75,0.00,,,0.01,weatherlink.com 1.10,2013-02-05 20:46:00,
2013-02-05 13:01:00,58.0,50.0,30.07,WNW,300,0.0,5.0,74,0.00,,,0.01,weatherlink.com 1.10,2013-02-05 21:01:00,
2013-02-05 13:16:00,58.7,49.0,30.07,SW,214,0.0,4.0,71,0.00,,,0.01,weatherlink.com 1.10,2013-02-05 21:16:00,
2013-02-05 13:31:00,59.4,50.0,30.06,WNW,287,1.0,8.0,71,0.00,,,0.01,weatherlink.com 1.10,2013-02-05 21:31:00,
2013-02-05 13:46:00,59.9,50.0,30.05,West,278,1.0,4.0,71,0.00,,,0.01,weatherlink.com 1.10,2013-02-05 21:46:00,
2013-02-05 14:01:00,60.3,50.0,30.05,NNW,343,3.0,7.0,70,0.00,,,0.01,weatherlink.com 1.10,2013-02-05 22:01:00,
2013-02-05 14:17:00,59.3,50.0,30.05,WNW,300,1.0,8.0,71,0.00,,,0.01,weatherlink.com 1.10,2013-02-05 22:17:00,
2013-02-05 14:31:00,59.9,50.0,30.05,SSE,167,4.0,7.0,71,0.00,,,0.01,weatherlink.com 1.10,2013-02-05 22:31:00,
2013-02-05 14:46:00,61.0,51.0,30.04,East,97,2.0,6.0,70,0.00,,,0.01,weatherlink.com 1.10,2013-02-05 22:46:00,
2013-02-05 15:02:00,61.0,51.0,30.04,NE,44,0.0,5.0,69,0.00,,,0.01,weatherlink.com 1.10,2013-02-05 23:02:00,
2013-02-05 15:17:00,61.2,49.0,30.05,NNW,337,3.0,9.0,65,0.00,,,0.01,weatherlink.com 1.10,2013-02-05 23:17:00,
2013-02-05 15:31:00,62.9,50.0,30.05,NW,323,8.0,11.0,62,0.00,,,0.01,weatherlink.com 1.10,2013-02-05 23:31:00,
2013-02-05 15:46:00,63.5,50.0,30.05,WNW,291,5.0,10.0,62,0.00,,,0.01,weatherlink.com 1.10,2013-02-05 23:46:00,
2013-02-05 16:01:00,62.0,49.0,30.06,NNW,337,8.0,13.0,62,0.00,,,0.01,weatherlink.com 1.10,2013-02-06 00:01:00,
2013-02-05 16:16:00,61.8,49.0,30.06,SW,235,3.0,6.0,64,0.00,,,0.01,weatherlink.com 1.10,2013-02-06 00:16:00,
2013-02-05 16:31:00,60.7,47.0,30.06,NNW,341,3.0,14.0,62,0.00,,,0.01,weatherlink.com 1.10,2013-02-06 00:31:00,
2013-02-05 16:47:00,60.8,49.0,30.06,WNW,302,4.0,9.0,65,0.00,,,0.01,weatherlink.com 1.10,2013-02-06 00:47:00,
2013-02-05 17:01:00,60.3,48.0,30.07,West,260,1.0,11.0,64,0.00,,,0.01,weatherlink.com 1.10,2013-02-06 01:01:00,
2013-02-05 17:16:00,59.7,49.0,30.07,WNW,294,2.0,7.0,67,0.00,,,0.01,weatherlink.com 1.10,2013-02-06 01:16:00,
2013-02-05 17:32:00,57.4,50.0,30.07,WNW,300,3.0,6.0,75,0.00,,,0.01,weatherlink.com 1.10,2013-02-06 01:32:00,
2013-02-05 17:47:00,55.3,49.0,30.08,WSW,244,3.0,5.0,79,0.00,,,0.01,weatherlink.com 1.10,2013-02-06 01:47:00,
2013-02-05 18:02:00,53.6,48.0,30.08,SW,217,3.0,5.0,82,0.00,,,0.01,weatherlink.com 1.10,2013-02-06 02:02:00,
2013-02-05 18:17:00,52.3,48.0,30.08,SE,124,2.0,6.0,85,0.00,,,0.01,weatherlink.com 1.10,2013-02-06 02:17:00,
2013-02-05 18:32:00,51.5,48.0,30.08,SW,235,1.0,5.0,87,0.00,,,0.01,weatherlink.com 1.10,2013-02-06 02:32:00,
2013-02-05 18:47:00,51.4,48.0,30.09,SW,214,3.0,5.0,87,0.00,,,0.01,weatherlink.com 1.10,2013-02-06 02:47:00,
2013-02-05 19:02:00,50.0,47.0,30.10,South,187,1.0,4.0,88,0.00,,,0.01,weatherlink.com 1.10,2013-02-06 03:02:00,
2013-02-05 19:17:00,49.2,47.0,30.10,SW,215,0.0,3.0,90,0.00,,,0.01,weatherlink.com 1.10,2013-02-06 03:17:00,
2013-02-05 19:32:00,49.0,47.0,30.11,SW,235,2.0,4.0,91,0.00,,,0.01,weatherlink.com 1.10,2013-02-06 03:32:00,
2013-02-05 19:47:00,48.6,46.0,30.11,SSW,200,0.0,0.0,90,0.00,,,0.01,weatherlink.com 1.10,2013-02-06 03:47:00,
2013-02-05 20:02:00,47.8,45.0,30.12,South,173,0.0,0.0,91,0.00,,,0.01,weatherlink.com 1.10,2013-02-06 04:02:00,
2013-02-05 20:17:00,47.6,45.0,30.12,ESE,120,2.0,3.0,92,0.00,,,0.01,weatherlink.com 1.10,2013-02-06 04:17:00,
2013-02-05 20:32:00,47.2,45.0,30.12,SE,128,0.0,3.0,91,0.00,,,0.01,weatherlink.com 1.10,2013-02-06 04:32:00,
2013-02-05 20:47:00,46.7,44.0,30.12,WSW,246,0.0,0.0,91,0.00,,,0.01,weatherlink.com 1.10,2013-02-06 04:47:00,
2013-02-05 21:02:00,46.0,44.0,30.13,SSW,210,0.0,0.0,91,0.00,,,0.01,weatherlink.com 1.10,2013-02-06 05:02:00,
2013-02-05 21:17:00,45.6,43.0,30.13,SE,133,0.0,0.0,90,0.00,,,0.01,weatherlink.com 1.10,2013-02-06 05:17:00,
2013-02-05 21:32:00,46.0,43.0,30.13,SE,129,3.0,4.0,89,0.00,,,0.01,weatherlink.com 1.10,2013-02-06 05:32:00,
2013-02-05 21:47:00,45.6,43.0,30.13,SE,134,2.0,3.0,89,0.00,,,0.01,weatherlink.com 1.10,2013-02-06 05:47:00,
2013-02-05 22:02:00,45.1,42.0,30.14,NNE,27,0.0,0.0,88,0.00,,,0.01,weatherlink.com 1.10,2013-02-06 06:02:00,
2013-02-05 22:17:00,45.1,42.0,30.14,ENE,77,0.0,3.0,89,0.00,,,0.01,weatherlink.com 1.10,2013-02-06 06:17:00,
2013-02-05 22:32:00,45.9,42.0,30.14,ENE,72,0.0,2.0,87,0.00,,,0.01,weatherlink.com 1.10,2013-02-06 06:32:00,
2013-02-05 22:47:00,45.9,42.0,30.15,NE,55,0.0,3.0,87,0.00,,,0.01,weatherlink.com 1.10,2013-02-06 06:47:00,
2013-02-05 23:02:00,46.0,42.0,30.15,NE,53,0.0,2.0,86,0.00,,,0.01,weatherlink.com 1.10,2013-02-06 07:02:00,
2013-02-05 23:17:00,45.4,42.0,30.16,ESE,115,0.0,2.0,86,0.00,,,0.01,weatherlink.com 1.10,2013-02-06 07:17:00,
2013-02-05 23:32:00,44.7,41.0,30.16,ESE,111,0.0,1.0,87,0.00,,,0.01,weatherlink.com 1.10,2013-02-06 07:32:00,
2013-02-05 23:47:00,44.6,42.0,30.16,ENE,74,0.0,0.0,89,0.00,,,0.01,weatherlink.com 1.10,2013-02-06 07:47:00,